sensor_id;sensor_type;location;lat;lon;timestamp;temperature;humidity
77496;SHT31;66600;48.378;9.948;2023-11-22T00:00:20;5.66;96.82
77496;SHT31;66600;48.378;9.948;2023-11-22T00:00:51;5.66;97.08
77496;SHT31;66600;48.378;9.948;2023-11-22T00:01:21;5.70;96.93
77496;SHT31;66600;48.378;9.948;2023-11-22T00:01:52;5.66;96.87
77496;SHT31;66600;48.378;9.948;2023-11-22T00:02:23;5.66;96.83
77496;SHT31;66600;48.378;9.948;2023-11-22T00:02:57;5.65;96.85
77496;SHT31;66600;48.378;9.948;2023-11-22T00:03:27;5.69;96.86
77496;SHT31;66600;48.378;9.948;2023-11-22T00:03:57;5.68;96.82
77496;SHT31;66600;48.378;9.948;2023-11-22T00:04:28;5.68;96.82
77496;SHT31;66600;48.378;9.948;2023-11-22T00:04:58;5.66;96.89
77496;SHT31;66600;48.378;9.948;2023-11-22T00:05:29;5.66;96.80
77496;SHT31;66600;48.378;9.948;2023-11-22T00:05:59;5.65;96.83
77496;SHT31;66600;48.378;9.948;2023-11-22T00:06:31;5.68;96.77
77496;SHT31;66600;48.378;9.948;2023-11-22T00:07:01;5.68;96.75
77496;SHT31;66600;48.378;9.948;2023-11-22T00:07:32;5.68;96.73
77496;SHT31;66600;48.378;9.948;2023-11-22T00:08:03;5.68;96.73
77496;SHT31;66600;48.378;9.948;2023-11-22T00:08:33;5.68;96.78
77496;SHT31;66600;48.378;9.948;2023-11-22T00:09:04;5.69;96.86
77496;SHT31;66600;48.378;9.948;2023-11-22T00:09:35;5.68;96.82
77496;SHT31;66600;48.378;9.948;2023-11-22T00:10:06;5.66;96.67
77496;SHT31;66600;48.378;9.948;2023-11-22T00:10:37;5.68;96.71
77496;SHT31;66600;48.378;9.948;2023-11-22T00:11:08;5.66;96.72
77496;SHT31;66600;48.378;9.948;2023-11-22T00:11:39;5.66;96.76
77496;SHT31;66600;48.378;9.948;2023-11-22T00:12:09;5.69;96.74
77496;SHT31;66600;48.378;9.948;2023-11-22T00:12:40;5.70;96.71
77496;SHT31;66600;48.378;9.948;2023-11-22T00:13:10;5.70;96.67
77496;SHT31;66600;48.378;9.948;2023-11-22T00:13:41;5.70;96.68
77496;SHT31;66600;48.378;9.948;2023-11-22T00:14:12;5.70;96.69
77496;SHT31;66600;48.378;9.948;2023-11-22T00:14:42;5.72;96.64
77496;SHT31;66600;48.378;9.948;2023-11-22T00:15:12;5.69;96.53
77496;SHT31;66600;48.378;9.948;2023-11-22T00:15:48;5.69;96.60
77496;SHT31;66600;48.378;9.948;2023-11-22T00:16:20;5.70;96.63
77496;SHT31;66600;48.378;9.948;2023-11-22T00:16:54;5.66;96.55
77496;SHT31;66600;48.378;9.948;2023-11-22T00:17:24;5.69;96.64
77496;SHT31;66600;48.378;9.948;2023-11-22T00:17:55;5.66;96.67
77496;SHT31;66600;48.378;9.948;2023-11-22T00:18:27;5.66;96.77
77496;SHT31;66600;48.378;9.948;2023-11-22T00:18:58;5.68;96.77
77496;SHT31;66600;48.378;9.948;2023-11-22T00:19:28;5.63;96.74
77496;SHT31;66600;48.378;9.948;2023-11-22T00:19:59;5.66;96.76
77496;SHT31;66600;48.378;9.948;2023-11-22T00:20:32;5.66;96.74
77496;SHT31;66600;48.378;9.948;2023-11-22T00:21:03;5.66;96.78
77496;SHT31;66600;48.378;9.948;2023-11-22T00:21:34;5.68;96.78
77496;SHT31;66600;48.378;9.948;2023-11-22T00:22:05;5.68;96.82
77496;SHT31;66600;48.378;9.948;2023-11-22T00:22:43;5.70;96.75
77496;SHT31;66600;48.378;9.948;2023-11-22T00:23:15;5.75;96.69
77496;SHT31;66600;48.378;9.948;2023-11-22T00:23:45;5.70;96.62
77496;SHT31;66600;48.378;9.948;2023-11-22T00:24:16;5.73;96.69
77496;SHT31;66600;48.378;9.948;2023-11-22T00:24:48;5.76;96.83
77496;SHT31;66600;48.378;9.948;2023-11-22T00:25:20;5.73;96.78
77496;SHT31;66600;48.378;9.948;2023-11-22T00:25:50;5.73;96.77
77496;SHT31;66600;48.378;9.948;2023-11-22T00:26:22;5.73;96.75
77496;SHT31;66600;48.378;9.948;2023-11-22T00:26:53;5.73;96.73
77496;SHT31;66600;48.378;9.948;2023-11-22T00:27:23;5.75;96.70
77496;SHT31;66600;48.378;9.948;2023-11-22T00:27:53;5.78;96.69
77496;SHT31;66600;48.378;9.948;2023-11-22T00:28:25;5.78;96.72
77496;SHT31;66600;48.378;9.948;2023-11-22T00:28:55;5.76;96.70
77496;SHT31;66600;48.378;9.948;2023-11-22T00:29:26;5.75;96.68
77496;SHT31;66600;48.378;9.948;2023-11-22T00:29:57;5.75;96.67
77496;SHT31;66600;48.378;9.948;2023-11-22T00:30:27;5.75;96.59
77496;SHT31;66600;48.378;9.948;2023-11-22T00:30:58;5.72;96.62
77496;SHT31;66600;48.378;9.948;2023-11-22T00:31:28;5.69;96.73
77496;SHT31;66600;48.378;9.948;2023-11-22T00:31:59;5.75;96.83
77496;SHT31;66600;48.378;9.948;2023-11-22T00:32:30;5.75;96.76
77496;SHT31;66600;48.378;9.948;2023-11-22T00:33:00;5.73;96.73
77496;SHT31;66600;48.378;9.948;2023-11-22T00:33:30;5.78;96.73
77496;SHT31;66600;48.378;9.948;2023-11-22T00:34:01;5.76;96.72
77496;SHT31;66600;48.378;9.948;2023-11-22T00:34:32;5.75;96.55
77496;SHT31;66600;48.378;9.948;2023-11-22T00:35:02;5.72;96.45
77496;SHT31;66600;48.378;9.948;2023-11-22T00:35:32;5.72;96.54
77496;SHT31;66600;48.378;9.948;2023-11-22T00:36:03;5.70;96.66
77496;SHT31;66600;48.378;9.948;2023-11-22T00:36:34;5.73;96.76
77496;SHT31;66600;48.378;9.948;2023-11-22T00:37:05;5.75;96.83
77496;SHT31;66600;48.378;9.948;2023-11-22T00:37:35;5.75;96.81
77496;SHT31;66600;48.378;9.948;2023-11-22T00:38:06;5.75;96.72
77496;SHT31;66600;48.378;9.948;2023-11-22T00:38:36;5.72;96.62
77496;SHT31;66600;48.378;9.948;2023-11-22T00:39:07;5.75;96.72
77496;SHT31;66600;48.378;9.948;2023-11-22T00:39:41;5.72;96.74
77496;SHT31;66600;48.378;9.948;2023-11-22T00:40:12;5.69;96.73
77496;SHT31;66600;48.378;9.948;2023-11-22T00:40:43;5.73;96.73
77496;SHT31;66600;48.378;9.948;2023-11-22T00:41:13;5.73;96.89
77496;SHT31;66600;48.378;9.948;2023-11-22T00:41:47;5.76;96.84
77496;SHT31;66600;48.378;9.948;2023-11-22T00:42:17;5.76;96.76
77496;SHT31;66600;48.378;9.948;2023-11-22T00:42:50;5.70;96.77
77496;SHT31;66600;48.378;9.948;2023-11-22T00:43:20;5.72;96.82
77496;SHT31;66600;48.378;9.948;2023-11-22T00:43:51;5.72;97.07
77496;SHT31;66600;48.378;9.948;2023-11-22T00:44:21;5.73;97.09
77496;SHT31;66600;48.378;9.948;2023-11-22T00:44:52;5.73;97.05
77496;SHT31;66600;48.378;9.948;2023-11-22T00:45:22;5.72;97.12
77496;SHT31;66600;48.378;9.948;2023-11-22T00:45:53;5.72;97.07
77496;SHT31;66600;48.378;9.948;2023-11-22T00:46:23;5.70;97.18
77496;SHT31;66600;48.378;9.948;2023-11-22T00:46:53;5.72;97.41
77496;SHT31;66600;48.378;9.948;2023-11-22T00:47:24;5.75;97.38
77496;SHT31;66600;48.378;9.948;2023-11-22T00:47:54;5.72;97.25
77496;SHT31;66600;48.378;9.948;2023-11-22T00:48:24;5.73;97.22
77496;SHT31;66600;48.378;9.948;2023-11-22T00:48:55;5.72;97.14
77496;SHT31;66600;48.378;9.948;2023-11-22T00:49:26;5.70;97.16
77496;SHT31;66600;48.378;9.948;2023-11-22T00:49:56;5.69;97.15
77496;SHT31;66600;48.378;9.948;2023-11-22T00:50:27;5.72;97.19
77496;SHT31;66600;48.378;9.948;2023-11-22T00:50:57;5.70;97.20
77496;SHT31;66600;48.378;9.948;2023-11-22T00:51:27;5.69;97.25
77496;SHT31;66600;48.378;9.948;2023-11-22T00:51:58;5.69;97.25
77496;SHT31;66600;48.378;9.948;2023-11-22T00:52:28;5.68;97.32
77496;SHT31;66600;48.378;9.948;2023-11-22T00:52:58;5.70;97.36
77496;SHT31;66600;48.378;9.948;2023-11-22T00:53:29;5.68;97.35
77496;SHT31;66600;48.378;9.948;2023-11-22T00:54:00;5.69;97.30
77496;SHT31;66600;48.378;9.948;2023-11-22T00:54:30;5.75;97.27
77496;SHT31;66600;48.378;9.948;2023-11-22T00:55:00;5.72;97.26
77496;SHT31;66600;48.378;9.948;2023-11-22T00:55:31;5.72;97.18
77496;SHT31;66600;48.378;9.948;2023-11-22T00:56:02;5.70;97.18
77496;SHT31;66600;48.378;9.948;2023-11-22T00:56:33;5.68;97.20
77496;SHT31;66600;48.378;9.948;2023-11-22T00:57:03;5.69;97.31
77496;SHT31;66600;48.378;9.948;2023-11-22T00:57:34;5.69;97.34
77496;SHT31;66600;48.378;9.948;2023-11-22T00:58:04;5.69;97.35
77496;SHT31;66600;48.378;9.948;2023-11-22T00:58:34;5.70;97.41
77496;SHT31;66600;48.378;9.948;2023-11-22T00:59:05;5.66;97.46
77496;SHT31;66600;48.378;9.948;2023-11-22T00:59:35;5.66;97.43
77496;SHT31;66600;48.378;9.948;2023-11-22T01:00:06;5.66;97.45
77496;SHT31;66600;48.378;9.948;2023-11-22T01:00:40;5.66;97.45
77496;SHT31;66600;48.378;9.948;2023-11-22T01:01:10;5.65;97.46
77496;SHT31;66600;48.378;9.948;2023-11-22T01:01:41;5.63;97.57
77496;SHT31;66600;48.378;9.948;2023-11-22T01:02:12;5.65;97.75
77496;SHT31;66600;48.378;9.948;2023-11-22T01:02:42;5.62;97.84
77496;SHT31;66600;48.378;9.948;2023-11-22T01:03:12;5.60;97.82
77496;SHT31;66600;48.378;9.948;2023-11-22T01:03:43;5.60;97.82
77496;SHT31;66600;48.378;9.948;2023-11-22T01:04:13;5.60;97.85
77496;SHT31;66600;48.378;9.948;2023-11-22T01:04:45;5.58;97.82
77496;SHT31;66600;48.378;9.948;2023-11-22T01:05:15;5.58;97.80
77496;SHT31;66600;48.378;9.948;2023-11-22T01:05:46;5.59;97.81
77496;SHT31;66600;48.378;9.948;2023-11-22T01:06:16;5.58;97.74
77496;SHT31;66600;48.378;9.948;2023-11-22T01:06:48;5.58;97.80
77496;SHT31;66600;48.378;9.948;2023-11-22T01:07:18;5.56;97.85
77496;SHT31;66600;48.378;9.948;2023-11-22T01:07:49;5.59;97.84
77496;SHT31;66600;48.378;9.948;2023-11-22T01:08:19;5.60;97.85
77496;SHT31;66600;48.378;9.948;2023-11-22T01:08:49;5.60;97.85
77496;SHT31;66600;48.378;9.948;2023-11-22T01:09:20;5.60;97.78
77496;SHT31;66600;48.378;9.948;2023-11-22T01:09:51;5.60;97.75
77496;SHT31;66600;48.378;9.948;2023-11-22T01:10:23;5.59;97.77
77496;SHT31;66600;48.378;9.948;2023-11-22T01:10:53;5.60;97.78
77496;SHT31;66600;48.378;9.948;2023-11-22T01:11:24;5.56;97.78
77496;SHT31;66600;48.378;9.948;2023-11-22T01:11:54;5.56;97.78
77496;SHT31;66600;48.378;9.948;2023-11-22T01:12:24;5.56;97.84
77496;SHT31;66600;48.378;9.948;2023-11-22T01:12:55;5.56;97.92
77496;SHT31;66600;48.378;9.948;2023-11-22T01:13:25;5.55;97.87
77496;SHT31;66600;48.378;9.948;2023-11-22T01:13:55;5.55;97.87
77496;SHT31;66600;48.378;9.948;2023-11-22T01:14:26;5.55;97.89
77496;SHT31;66600;48.378;9.948;2023-11-22T01:14:57;5.51;97.92
77496;SHT31;66600;48.378;9.948;2023-11-22T01:15:27;5.54;97.92
77496;SHT31;66600;48.378;9.948;2023-11-22T01:15:58;5.58;97.93
77496;SHT31;66600;48.378;9.948;2023-11-22T01:16:29;5.56;97.84
77496;SHT31;66600;48.378;9.948;2023-11-22T01:16:59;5.56;97.83
77496;SHT31;66600;48.378;9.948;2023-11-22T01:17:29;5.54;97.87
77496;SHT31;66600;48.378;9.948;2023-11-22T01:18:01;5.55;97.89
77496;SHT31;66600;48.378;9.948;2023-11-22T01:18:31;5.54;97.93
77496;SHT31;66600;48.378;9.948;2023-11-22T01:19:01;5.54;97.97
77496;SHT31;66600;48.378;9.948;2023-11-22T01:19:32;5.54;97.96
77496;SHT31;66600;48.378;9.948;2023-11-22T01:20:02;5.55;97.93
77496;SHT31;66600;48.378;9.948;2023-11-22T01:20:33;5.56;97.99
77496;SHT31;66600;48.378;9.948;2023-11-22T01:21:04;5.55;98.01
77496;SHT31;66600;48.378;9.948;2023-11-22T01:21:34;5.55;97.98
77496;SHT31;66600;48.378;9.948;2023-11-22T01:22:04;5.56;98.02
77496;SHT31;66600;48.378;9.948;2023-11-22T01:22:35;5.56;98.05
77496;SHT31;66600;48.378;9.948;2023-11-22T01:23:05;5.55;98.01
77496;SHT31;66600;48.378;9.948;2023-11-22T01:23:35;5.54;98.03
77496;SHT31;66600;48.378;9.948;2023-11-22T01:24:06;5.51;97.99
77496;SHT31;66600;48.378;9.948;2023-11-22T01:24:37;5.54;98.06
77496;SHT31;66600;48.378;9.948;2023-11-22T01:25:07;5.52;98.07
77496;SHT31;66600;48.378;9.948;2023-11-22T01:25:38;5.55;98.06
77496;SHT31;66600;48.378;9.948;2023-11-22T01:26:08;5.52;98.02
77496;SHT31;66600;48.378;9.948;2023-11-22T01:26:39;5.54;98.05
77496;SHT31;66600;48.378;9.948;2023-11-22T01:27:10;5.58;98.03
77496;SHT31;66600;48.378;9.948;2023-11-22T01:27:40;5.55;98.07
77496;SHT31;66600;48.378;9.948;2023-11-22T01:28:11;5.56;98.00
77496;SHT31;66600;48.378;9.948;2023-11-22T01:28:41;5.55;98.03
77496;SHT31;66600;48.378;9.948;2023-11-22T01:29:14;5.59;98.00
77496;SHT31;66600;48.378;9.948;2023-11-22T01:29:44;5.56;98.01
77496;SHT31;66600;48.378;9.948;2023-11-22T01:30:15;5.54;97.96
77496;SHT31;66600;48.378;9.948;2023-11-22T01:30:46;5.55;98.01
77496;SHT31;66600;48.378;9.948;2023-11-22T01:31:17;5.59;97.97
77496;SHT31;66600;48.378;9.948;2023-11-22T01:31:50;5.63;97.92
77496;SHT31;66600;48.378;9.948;2023-11-22T01:32:21;5.63;97.84
77496;SHT31;66600;48.378;9.948;2023-11-22T01:32:51;5.66;97.80
77496;SHT31;66600;48.378;9.948;2023-11-22T01:33:22;5.65;97.79
77496;SHT31;66600;48.378;9.948;2023-11-22T01:33:53;5.63;97.74
77496;SHT31;66600;48.378;9.948;2023-11-22T01:34:24;5.65;97.68
77496;SHT31;66600;48.378;9.948;2023-11-22T01:34:54;5.59;97.67
77496;SHT31;66600;48.378;9.948;2023-11-22T01:35:28;5.60;97.63
77496;SHT31;66600;48.378;9.948;2023-11-22T01:35:58;5.59;97.71
77496;SHT31;66600;48.378;9.948;2023-11-22T01:36:29;5.65;97.73
77496;SHT31;66600;48.378;9.948;2023-11-22T01:36:59;5.65;97.68
77496;SHT31;66600;48.378;9.948;2023-11-22T01:37:29;5.63;97.62
77496;SHT31;66600;48.378;9.948;2023-11-22T01:38:00;5.62;97.70
77496;SHT31;66600;48.378;9.948;2023-11-22T01:38:32;5.63;97.72
77496;SHT31;66600;48.378;9.948;2023-11-22T01:39:02;5.62;97.76
77496;SHT31;66600;48.378;9.948;2023-11-22T01:39:33;5.60;97.75
77496;SHT31;66600;48.378;9.948;2023-11-22T01:40:03;5.63;97.75
77496;SHT31;66600;48.378;9.948;2023-11-22T01:40:34;5.66;97.67
77496;SHT31;66600;48.378;9.948;2023-11-22T01:41:05;5.65;97.66
77496;SHT31;66600;48.378;9.948;2023-11-22T01:41:35;5.66;97.61
77496;SHT31;66600;48.378;9.948;2023-11-22T01:42:05;5.63;97.64
77496;SHT31;66600;48.378;9.948;2023-11-22T01:42:37;5.65;97.74
77496;SHT31;66600;48.378;9.948;2023-11-22T01:43:13;5.69;97.68
77496;SHT31;66600;48.378;9.948;2023-11-22T01:43:43;5.68;97.66
77496;SHT31;66600;48.378;9.948;2023-11-22T01:44:14;5.69;97.53
77496;SHT31;66600;48.378;9.948;2023-11-22T01:44:44;5.73;97.58
77496;SHT31;66600;48.378;9.948;2023-11-22T01:45:14;5.70;97.49
77496;SHT31;66600;48.378;9.948;2023-11-22T01:45:45;5.73;97.49
77496;SHT31;66600;48.378;9.948;2023-11-22T01:46:23;5.69;97.47
77496;SHT31;66600;48.378;9.948;2023-11-22T01:46:56;5.70;97.52
77496;SHT31;66600;48.378;9.948;2023-11-22T01:47:27;5.66;97.56
77496;SHT31;66600;48.378;9.948;2023-11-22T01:47:57;5.66;97.66
77496;SHT31;66600;48.378;9.948;2023-11-22T01:48:28;5.68;97.70
77496;SHT31;66600;48.378;9.948;2023-11-22T01:48:58;5.68;97.68
77496;SHT31;66600;48.378;9.948;2023-11-22T01:49:30;5.70;97.68
77496;SHT31;66600;48.378;9.948;2023-11-22T01:50:00;5.69;97.68
77496;SHT31;66600;48.378;9.948;2023-11-22T01:50:31;5.69;97.61
77496;SHT31;66600;48.378;9.948;2023-11-22T01:51:01;5.66;97.74
77496;SHT31;66600;48.378;9.948;2023-11-22T01:51:32;5.69;97.78
77496;SHT31;66600;48.378;9.948;2023-11-22T01:52:03;5.68;97.76
77496;SHT31;66600;48.378;9.948;2023-11-22T01:52:34;5.68;97.77
77496;SHT31;66600;48.378;9.948;2023-11-22T01:53:04;5.70;97.80
77496;SHT31;66600;48.378;9.948;2023-11-22T01:53:35;5.70;97.76
77496;SHT31;66600;48.378;9.948;2023-11-22T01:54:07;5.73;97.74
77496;SHT31;66600;48.378;9.948;2023-11-22T01:54:38;5.76;97.70
77496;SHT31;66600;48.378;9.948;2023-11-22T01:55:09;5.79;97.61
77496;SHT31;66600;48.378;9.948;2023-11-22T01:55:40;5.79;97.52
77496;SHT31;66600;48.378;9.948;2023-11-22T01:56:11;5.80;97.50
77496;SHT31;66600;48.378;9.948;2023-11-22T01:56:41;5.79;97.51
77496;SHT31;66600;48.378;9.948;2023-11-22T01:57:12;5.79;97.52
77496;SHT31;66600;48.378;9.948;2023-11-22T01:57:42;5.80;97.55
77496;SHT31;66600;48.378;9.948;2023-11-22T01:58:13;5.76;97.57
77496;SHT31;66600;48.378;9.948;2023-11-22T01:58:44;5.76;97.58
77496;SHT31;66600;48.378;9.948;2023-11-22T01:59:14;5.82;97.56
77496;SHT31;66600;48.378;9.948;2023-11-22T01:59:45;5.80;97.50
77496;SHT31;66600;48.378;9.948;2023-11-22T02:00:16;5.82;97.49
77496;SHT31;66600;48.378;9.948;2023-11-22T02:00:50;5.83;97.70
77496;SHT31;66600;48.378;9.948;2023-11-22T02:01:22;5.82;97.73
77496;SHT31;66600;48.378;9.948;2023-11-22T02:01:53;5.78;97.71
77496;SHT31;66600;48.378;9.948;2023-11-22T02:02:24;5.73;97.80
77496;SHT31;66600;48.378;9.948;2023-11-22T02:02:54;5.69;97.79
77496;SHT31;66600;48.378;9.948;2023-11-22T02:03:25;5.66;97.78
77496;SHT31;66600;48.378;9.948;2023-11-22T02:03:55;5.65;98.07
77496;SHT31;66600;48.378;9.948;2023-11-22T02:04:25;5.59;98.37
77496;SHT31;66600;48.378;9.948;2023-11-22T02:04:56;5.59;98.44
77496;SHT31;66600;48.378;9.948;2023-11-22T02:05:27;5.55;98.38
77496;SHT31;66600;48.378;9.948;2023-11-22T02:05:57;5.42;98.20
77496;SHT31;66600;48.378;9.948;2023-11-22T02:06:28;5.37;98.14
77496;SHT31;66600;48.378;9.948;2023-11-22T02:07:01;5.23;98.02
77496;SHT31;66600;48.378;9.948;2023-11-22T02:07:31;5.24;98.23
77496;SHT31;66600;48.378;9.948;2023-11-22T02:08:02;5.13;98.37
77496;SHT31;66600;48.378;9.948;2023-11-22T02:08:32;5.06;98.19
77496;SHT31;66600;48.378;9.948;2023-11-22T02:09:03;4.94;98.23
77496;SHT31;66600;48.378;9.948;2023-11-22T02:09:33;4.90;98.27
77496;SHT31;66600;48.378;9.948;2023-11-22T02:10:06;4.84;98.68
77496;SHT31;66600;48.378;9.948;2023-11-22T02:10:37;4.77;98.87
77496;SHT31;66600;48.378;9.948;2023-11-22T02:11:08;4.79;99.02
77496;SHT31;66600;48.378;9.948;2023-11-22T02:11:39;4.80;99.04
77496;SHT31;66600;48.378;9.948;2023-11-22T02:12:09;4.79;99.25
77496;SHT31;66600;48.378;9.948;2023-11-22T02:12:40;4.76;99.11
77496;SHT31;66600;48.378;9.948;2023-11-22T02:13:10;4.76;99.23
77496;SHT31;66600;48.378;9.948;2023-11-22T02:13:40;4.76;99.38
77496;SHT31;66600;48.378;9.948;2023-11-22T02:14:11;4.73;99.31
77496;SHT31;66600;48.378;9.948;2023-11-22T02:14:41;4.69;99.11
77496;SHT31;66600;48.378;9.948;2023-11-22T02:15:12;4.63;98.71
77496;SHT31;66600;48.378;9.948;2023-11-22T02:15:42;4.62;98.75
77496;SHT31;66600;48.378;9.948;2023-11-22T02:16:12;4.59;98.79
77496;SHT31;66600;48.378;9.948;2023-11-22T02:16:43;4.55;98.78
77496;SHT31;66600;48.378;9.948;2023-11-22T02:17:13;4.58;98.89
77496;SHT31;66600;48.378;9.948;2023-11-22T02:17:44;4.55;98.68
77496;SHT31;66600;48.378;9.948;2023-11-22T02:18:14;4.54;98.53
77496;SHT31;66600;48.378;9.948;2023-11-22T02:18:45;4.51;98.86
77496;SHT31;66600;48.378;9.948;2023-11-22T02:19:17;4.46;98.72
77496;SHT31;66600;48.378;9.948;2023-11-22T02:19:47;4.52;98.97
77496;SHT31;66600;48.378;9.948;2023-11-22T02:20:18;4.49;98.87
77496;SHT31;66600;48.378;9.948;2023-11-22T02:20:49;4.46;98.99
77496;SHT31;66600;48.378;9.948;2023-11-22T02:21:20;4.45;98.82
77496;SHT31;66600;48.378;9.948;2023-11-22T02:21:51;4.46;99.01
77496;SHT31;66600;48.378;9.948;2023-11-22T02:22:22;4.49;99.27
77496;SHT31;66600;48.378;9.948;2023-11-22T02:22:53;4.48;99.09
77496;SHT31;66600;48.378;9.948;2023-11-22T02:23:23;4.48;99.20
77496;SHT31;66600;48.378;9.948;2023-11-22T02:23:53;4.44;98.68
77496;SHT31;66600;48.378;9.948;2023-11-22T02:24:24;4.41;98.79
77496;SHT31;66600;48.378;9.948;2023-11-22T02:24:54;4.45;99.13
77496;SHT31;66600;48.378;9.948;2023-11-22T02:25:24;4.42;98.99
77496;SHT31;66600;48.378;9.948;2023-11-22T02:25:55;4.45;99.05
77496;SHT31;66600;48.378;9.948;2023-11-22T02:26:25;4.46;98.96
77496;SHT31;66600;48.378;9.948;2023-11-22T02:26:55;4.46;98.98
77496;SHT31;66600;48.378;9.948;2023-11-22T02:27:26;4.48;99.18
77496;SHT31;66600;48.378;9.948;2023-11-22T02:27:56;4.45;98.93
77496;SHT31;66600;48.378;9.948;2023-11-22T02:28:27;4.42;98.82
77496;SHT31;66600;48.378;9.948;2023-11-22T02:28:57;4.40;98.62
77496;SHT31;66600;48.378;9.948;2023-11-22T02:29:29;4.44;98.80
77496;SHT31;66600;48.378;9.948;2023-11-22T02:29:59;4.45;98.85
77496;SHT31;66600;48.378;9.948;2023-11-22T02:30:29;4.46;98.80
77496;SHT31;66600;48.378;9.948;2023-11-22T02:31:00;4.51;98.87
77496;SHT31;66600;48.378;9.948;2023-11-22T02:31:30;4.56;98.81
77496;SHT31;66600;48.378;9.948;2023-11-22T02:32:00;4.56;98.83
77496;SHT31;66600;48.378;9.948;2023-11-22T02:32:31;4.55;98.71
77496;SHT31;66600;48.378;9.948;2023-11-22T02:33:03;4.55;98.66
77496;SHT31;66600;48.378;9.948;2023-11-22T02:33:35;4.52;98.53
77496;SHT31;66600;48.378;9.948;2023-11-22T02:34:05;4.52;98.38
77496;SHT31;66600;48.378;9.948;2023-11-22T02:34:36;4.46;98.11
77496;SHT31;66600;48.378;9.948;2023-11-22T02:35:06;4.48;98.24
77496;SHT31;66600;48.378;9.948;2023-11-22T02:35:38;4.42;97.96
77496;SHT31;66600;48.378;9.948;2023-11-22T02:36:09;4.42;98.04
77496;SHT31;66600;48.378;9.948;2023-11-22T02:36:42;4.37;97.86
77496;SHT31;66600;48.378;9.948;2023-11-22T02:37:13;4.30;97.89
77496;SHT31;66600;48.378;9.948;2023-11-22T02:37:44;4.28;97.91
77496;SHT31;66600;48.378;9.948;2023-11-22T02:38:15;4.21;97.66
77496;SHT31;66600;48.378;9.948;2023-11-22T02:38:48;4.17;97.73
77496;SHT31;66600;48.378;9.948;2023-11-22T02:39:18;4.24;97.86
77496;SHT31;66600;48.378;9.948;2023-11-22T02:40:15;4.16;97.70
77496;SHT31;66600;48.378;9.948;2023-11-22T02:40:49;4.14;97.67
77496;SHT31;66600;48.378;9.948;2023-11-22T02:41:20;4.10;97.58
77496;SHT31;66600;48.378;9.948;2023-11-22T02:41:50;4.11;97.57
77496;SHT31;66600;48.378;9.948;2023-11-22T02:42:21;3.98;96.91
77496;SHT31;66600;48.378;9.948;2023-11-22T02:42:53;4.00;97.11
77496;SHT31;66600;48.378;9.948;2023-11-22T02:43:23;3.98;97.38
77496;SHT31;66600;48.378;9.948;2023-11-22T02:43:54;3.97;97.36
77496;SHT31;66600;48.378;9.948;2023-11-22T02:44:25;3.97;97.49
77496;SHT31;66600;48.378;9.948;2023-11-22T02:44:55;3.96;97.44
77496;SHT31;66600;48.378;9.948;2023-11-22T02:45:27;4.00;97.49
77496;SHT31;66600;48.378;9.948;2023-11-22T02:45:58;3.93;97.53
77496;SHT31;66600;48.378;9.948;2023-11-22T02:46:28;3.94;97.51
77496;SHT31;66600;48.378;9.948;2023-11-22T02:47:01;3.91;97.63
77496;SHT31;66600;48.378;9.948;2023-11-22T02:47:31;3.94;97.62
77496;SHT31;66600;48.378;9.948;2023-11-22T02:48:02;3.94;97.55
77496;SHT31;66600;48.378;9.948;2023-11-22T02:48:33;3.93;97.27
77496;SHT31;66600;48.378;9.948;2023-11-22T02:49:04;3.90;97.48
77496;SHT31;66600;48.378;9.948;2023-11-22T02:49:35;3.87;97.23
77496;SHT31;66600;48.378;9.948;2023-11-22T02:50:06;3.87;97.41
77496;SHT31;66600;48.378;9.948;2023-11-22T02:50:36;3.87;97.25
77496;SHT31;66600;48.378;9.948;2023-11-22T02:51:10;3.87;97.25
77496;SHT31;66600;48.378;9.948;2023-11-22T02:51:41;3.80;97.13
77496;SHT31;66600;48.378;9.948;2023-11-22T02:52:12;3.80;97.15
77496;SHT31;66600;48.378;9.948;2023-11-22T02:52:44;3.80;97.22
77496;SHT31;66600;48.378;9.948;2023-11-22T02:53:15;3.79;97.26
77496;SHT31;66600;48.378;9.948;2023-11-22T02:53:45;3.79;97.28
77496;SHT31;66600;48.378;9.948;2023-11-22T02:54:16;3.75;97.21
77496;SHT31;66600;48.378;9.948;2023-11-22T02:54:46;3.72;97.16
77496;SHT31;66600;48.378;9.948;2023-11-22T02:55:17;3.69;96.71
77496;SHT31;66600;48.378;9.948;2023-11-22T02:55:48;3.72;97.16
77496;SHT31;66600;48.378;9.948;2023-11-22T02:56:19;3.73;97.42
77496;SHT31;66600;48.378;9.948;2023-11-22T02:56:49;3.72;97.55
77496;SHT31;66600;48.378;9.948;2023-11-22T02:57:20;3.73;97.48
77496;SHT31;66600;48.378;9.948;2023-11-22T02:57:51;3.73;97.35
77496;SHT31;66600;48.378;9.948;2023-11-22T02:58:21;3.73;97.03
77496;SHT31;66600;48.378;9.948;2023-11-22T02:58:52;3.73;96.98
77496;SHT31;66600;48.378;9.948;2023-11-22T02:59:22;3.72;97.17
77496;SHT31;66600;48.378;9.948;2023-11-22T02:59:52;3.70;97.20
77496;SHT31;66600;48.378;9.948;2023-11-22T03:00:23;3.66;97.07
77496;SHT31;66600;48.378;9.948;2023-11-22T03:00:55;3.68;97.36
77496;SHT31;66600;48.378;9.948;2023-11-22T03:01:27;3.66;97.35
77496;SHT31;66600;48.378;9.948;2023-11-22T03:01:57;3.68;97.76
77496;SHT31;66600;48.378;9.948;2023-11-22T03:02:28;3.68;97.62
77496;SHT31;66600;48.378;9.948;2023-11-22T03:02:58;3.65;97.31
77496;SHT31;66600;48.378;9.948;2023-11-22T03:03:28;3.65;97.41
77496;SHT31;66600;48.378;9.948;2023-11-22T03:03:59;3.62;97.38
77496;SHT31;66600;48.378;9.948;2023-11-22T03:04:30;3.65;97.61
77496;SHT31;66600;48.378;9.948;2023-11-22T03:05:01;3.66;97.75
77496;SHT31;66600;48.378;9.948;2023-11-22T03:05:31;3.62;97.33
77496;SHT31;66600;48.378;9.948;2023-11-22T03:06:02;3.65;97.56
77496;SHT31;66600;48.378;9.948;2023-11-22T03:06:32;3.63;97.67
77496;SHT31;66600;48.378;9.948;2023-11-22T03:07:03;3.63;97.58
77496;SHT31;66600;48.378;9.948;2023-11-22T03:07:33;3.60;97.28
77496;SHT31;66600;48.378;9.948;2023-11-22T03:08:04;3.65;97.27
77496;SHT31;66600;48.378;9.948;2023-11-22T03:08:34;3.62;96.81
77496;SHT31;66600;48.378;9.948;2023-11-22T03:09:04;3.62;97.01
77496;SHT31;66600;48.378;9.948;2023-11-22T03:09:35;3.65;97.09
77496;SHT31;66600;48.378;9.948;2023-11-22T03:10:08;3.63;97.14
77496;SHT31;66600;48.378;9.948;2023-11-22T03:10:38;3.63;97.05
77496;SHT31;66600;48.378;9.948;2023-11-22T03:11:08;3.63;97.20
77496;SHT31;66600;48.378;9.948;2023-11-22T03:11:39;3.63;97.22
77496;SHT31;66600;48.378;9.948;2023-11-22T03:12:09;3.66;97.30
77496;SHT31;66600;48.378;9.948;2023-11-22T03:12:42;3.63;97.20
77496;SHT31;66600;48.378;9.948;2023-11-22T03:13:14;3.62;96.97
77496;SHT31;66600;48.378;9.948;2023-11-22T03:13:44;3.65;96.97
77496;SHT31;66600;48.378;9.948;2023-11-22T03:14:15;3.62;96.72
77496;SHT31;66600;48.378;9.948;2023-11-22T03:14:46;3.59;96.99
77496;SHT31;66600;48.378;9.948;2023-11-22T03:15:16;3.63;96.88
77496;SHT31;66600;48.378;9.948;2023-11-22T03:15:47;3.69;97.12
77496;SHT31;66600;48.378;9.948;2023-11-22T03:16:17;3.65;97.19
77496;SHT31;66600;48.378;9.948;2023-11-22T03:16:49;3.63;97.17
77496;SHT31;66600;48.378;9.948;2023-11-22T03:17:19;3.62;97.30
77496;SHT31;66600;48.378;9.948;2023-11-22T03:17:49;3.63;97.42
77496;SHT31;66600;48.378;9.948;2023-11-22T03:18:20;3.60;97.03